Edson Airport
CYET : now visible

Airfield :











YOU CAN JOIN US ON...

 
LOGIN :

Register | Disclaimer

   EN    FR    IT 

 









Legend :    VFR   Marginal VFR   IFR   Intensive IFR   Very Intensive IFR
Visi :
Ceiling :
>= 8 km
>= 3000ft
5 to 8 km
1000 to 3000 ft
1500m to 5 km
500 to 1000 ft
800 to 1500m
200 to 500 ft
< 800m
< 200 ft
Symbols :   Thunderstorms  Fog  Heavy snow  Heavy precipitations  Wind > 20 kt






- Airport Elevation : 3041 ft
- IATA code : YET


CYET - Edson

CURRENT METAR :
  • 030900Z AUTO 29003KT 9SM BKN140 17/17 A2982 RMK SLP088 DENSITY ALT 4000FT

EXPIRED METARs :
  • 030800Z AUTO 33003KT 280V350 9SM SCT140 17/17 A2983 RMK SLP094 DENSITY ALT 4100FT
  • 030700Z AUTO 02002KT 9SM CLR 20/16 A2983 RMK SLP092 DENSITY ALT 4300FT

TAF N/A
CZEG FIR / North America



MET'MAP, your aeronautical weather chart ! - Copyright ORBIFLY December 2007 - Disclaimer

ORBIFLY MET'MAP TEAM :

Programming & Development : Alexandra Zaïnal
Concept & original design : Baudouin d'Aumeries
Assistance for programming : Marc-Olivier Méhu
Technical & hardware support : Manuel Goepfert

Contact : metmap@orbifly.com




SOURCES & CREDITS :

   NOAA       Earth
Advisory